Dodge City Regional Airport
KDDC : now visible

Airfield :











YOU CAN JOIN US ON...

 
LOGIN :

Register | Disclaimer

   EN    FR    IT 

 









Legend :    VFR   Marginal VFR   IFR   Intensive IFR   Very Intensive IFR
Visi :
Ceiling :
>= 8 km
>= 3000ft
5 to 8 km
1000 to 3000 ft
1500m to 5 km
500 to 1000 ft
800 to 1500m
200 to 500 ft
< 800m
< 200 ft
Symbols :   Thunderstorms  Fog  Heavy snow  Heavy precipitations  Wind > 20 kt






- Airport Elevation : 2594 ft
- IATA code : DDC


KDDC - Dodge City Regional

CURRENT METAR :
  • 211852Z AUTO 32004KT 10SM SCT085 09/M04 A3028 RMK AO2 SLP264 T00941039

EXPIRED METARs :
  • 211752Z AUTO 10SM SCT047 08/M03 A3032 RMK AO2 SLP278 T00831033 10083 20006 58006
  • 211652Z AUTO VRB06KT 10SM BKN085 07/M04 A3035 RMK AO2 SLP290 T00671039

TAF KDDC
Valid from the 21 at 18:00 until the 22 at 18:00 UTC


211724Z 2118/2218 35008KT P6SM OVC080
FM212200 02006KT P6SM OVC100
FM212300 07007KT P6SM OVC100
FM221200 15013KT P6SM OVC100
FM221400 16018G25KT P6SM OVC090
KZKC FIR / North America



MET'MAP, your aeronautical weather chart ! - Copyright ORBIFLY December 2007 - Disclaimer

ORBIFLY MET'MAP TEAM :

Programming & Development : Alexandra Zaïnal
Concept & original design : Baudouin d'Aumeries
Assistance for programming : Marc-Olivier Méhu
Technical & hardware support : Manuel Goepfert

Contact : metmap@orbifly.com




SOURCES & CREDITS :

   NOAA       Earth
Advisory